sensor_id;sensor_type;location;lat;lon;timestamp;pressure;altitude;pressure_sealevel;temperature;humidity
4858;BME280;58975;51.978;8.472;2023-02-28T00:01:20;101780.91;;;-2.83;100.00
4858;BME280;58975;51.978;8.472;2023-02-28T00:06:17;101779.19;;;-2.94;100.00
4858;BME280;58975;51.978;8.472;2023-02-28T00:11:14;101772.28;;;-2.99;100.00
4858;BME280;58975;51.978;8.472;2023-02-28T00:16:13;101770.50;;;-2.97;100.00
4858;BME280;58975;51.978;8.472;2023-02-28T00:21:11;101776.59;;;-2.97;100.00
4858;BME280;58975;51.978;8.472;2023-02-28T00:26:07;101767.94;;;-3.00;100.00
4858;BME280;58975;51.978;8.472;2023-02-28T00:31:03;101768.81;;;-2.98;100.00
4858;BME280;58975;51.978;8.472;2023-02-28T00:36:03;101773.06;;;-2.85;100.00
4858;BME280;58975;51.978;8.472;2023-02-28T00:41:00;101774.78;;;-2.78;100.00
4858;BME280;58975;51.978;8.472;2023-02-28T00:46:02;101781.75;;;-2.75;100.00
4858;BME280;58975;51.978;8.472;2023-02-28T00:50:58;101785.16;;;-2.64;100.00
4858;BME280;58975;51.978;8.472;2023-02-28T00:55:55;101778.22;;;-2.65;100.00
4858;BME280;58975;51.978;8.472;2023-02-28T01:00:52;101786.94;;;-2.77;100.00
4858;BME280;58975;51.978;8.472;2023-02-28T01:05:50;101783.53;;;-2.93;100.00
4858;BME280;58975;51.978;8.472;2023-02-28T01:10:46;101777.50;;;-3.02;100.00
4858;BME280;58975;51.978;8.472;2023-02-28T01:15:50;101787.03;;;-2.95;100.00
4858;BME280;58975;51.978;8.472;2023-02-28T01:20:47;101789.66;;;-3.07;100.00
4858;BME280;58975;51.978;8.472;2023-02-28T01:25:44;101781.88;;;-3.19;100.00
4858;BME280;58975;51.978;8.472;2023-02-28T01:30:41;101775.81;;;-3.18;100.00
4858;BME280;58975;51.978;8.472;2023-02-28T01:35:38;101786.19;;;-3.09;100.00
4858;BME280;58975;51.978;8.472;2023-02-28T01:40:34;101773.19;;;-3.15;100.00
4858;BME280;58975;51.978;8.472;2023-02-28T01:45:31;101780.13;;;-3.17;100.00
4858;BME280;58975;51.978;8.472;2023-02-28T01:50:34;101774.09;;;-3.31;100.00
4858;BME280;58975;51.978;8.472;2023-02-28T01:55:34;101772.34;;;-3.26;100.00
4858;BME280;58975;51.978;8.472;2023-02-28T02:00:31;101774.09;;;-3.39;100.00
4858;BME280;58975;51.978;8.472;2023-02-28T02:05:30;101781.03;;;-3.37;100.00
4858;BME280;58975;51.978;8.472;2023-02-28T02:15:34;101776.69;;;-3.36;100.00
4858;BME280;58975;51.978;8.472;2023-02-28T02:25:57;101780.16;;;-3.31;100.00
4858;BME280;58975;51.978;8.472;2023-02-28T02:36:25;101779.28;;;-3.22;100.00
4858;BME280;58975;51.978;8.472;2023-02-28T02:41:46;101772.31;;;-3.17;100.00
4858;BME280;58975;51.978;8.472;2023-02-28T02:46:47;101771.50;;;-3.30;100.00
4858;BME280;58975;51.978;8.472;2023-02-28T02:51:46;101774.09;;;-3.35;100.00
4858;BME280;58975;51.978;8.472;2023-02-28T02:56:45;101770.66;;;-3.43;100.00
4858;BME280;58975;51.978;8.472;2023-02-28T03:01:43;101778.47;;;-3.55;100.00
4858;BME280;58975;51.978;8.472;2023-02-28T03:06:39;101782.81;;;-3.63;100.00
4858;BME280;58975;51.978;8.472;2023-02-28T03:11:37;101777.63;;;-3.69;100.00
4858;BME280;58975;51.978;8.472;2023-02-28T03:16:52;101782.84;;;-3.69;100.00
4858;BME280;58975;51.978;8.472;2023-02-28T03:21:59;101775.88;;;-3.67;100.00
4858;BME280;58975;51.978;8.472;2023-02-28T03:27:10;101776.75;;;-3.72;100.00
4858;BME280;58975;51.978;8.472;2023-02-28T03:32:39;101777.63;;;-3.78;100.00
4858;BME280;58975;51.978;8.472;2023-02-28T03:37:40;101781.09;;;-3.58;100.00
4858;BME280;58975;51.978;8.472;2023-02-28T03:42:40;101772.38;;;-3.45;100.00
4858;BME280;58975;51.978;8.472;2023-02-28T03:47:41;101772.38;;;-3.60;100.00
4858;BME280;58975;51.978;8.472;2023-02-28T03:52:49;101762.88;;;-3.77;100.00
4858;BME280;58975;51.978;8.472;2023-02-28T04:03:21;101770.66;;;-4.03;100.00
4858;BME280;58975;51.978;8.472;2023-02-28T04:08:17;101784.53;;;-4.10;100.00
4858;BME280;58975;51.978;8.472;2023-02-28T04:13:14;101777.59;;;-4.14;100.00
4858;BME280;58975;51.978;8.472;2023-02-28T04:18:10;101777.59;;;-4.14;100.00
4858;BME280;58975;51.978;8.472;2023-02-28T04:23:07;101778.44;;;-4.18;100.00
4858;BME280;58975;51.978;8.472;2023-02-28T04:28:03;101777.59;;;-4.13;100.00
4858;BME280;58975;51.978;8.472;2023-02-28T04:33:00;101777.59;;;-4.11;100.00
4858;BME280;58975;51.978;8.472;2023-02-28T04:37:56;101769.78;;;-4.13;100.00
4858;BME280;58975;51.978;8.472;2023-02-28T04:42:53;101774.13;;;-4.16;100.00
4858;BME280;58975;51.978;8.472;2023-02-28T04:47:49;101774.13;;;-4.21;100.00
4858;BME280;58975;51.978;8.472;2023-02-28T04:52:45;101772.41;;;-4.16;100.00
4858;BME280;58975;51.978;8.472;2023-02-28T04:57:42;101770.66;;;-4.21;100.00
4858;BME280;58975;51.978;8.472;2023-02-28T05:02:38;101773.25;;;-4.26;100.00
4858;BME280;58975;51.978;8.472;2023-02-28T05:07:35;101772.38;;;-4.36;100.00
4858;BME280;58975;51.978;8.472;2023-02-28T05:12:32;101776.69;;;-4.36;100.00
4858;BME280;58975;51.978;8.472;2023-02-28T05:17:28;101781.88;;;-4.38;100.00
4858;BME280;58975;51.978;8.472;2023-02-28T05:22:24;101782.75;;;-4.48;100.00
4858;BME280;58975;51.978;8.472;2023-02-28T05:27:21;101786.19;;;-4.49;100.00
4858;BME280;58975;51.978;8.472;2023-02-28T05:32:17;101789.69;;;-4.44;100.00
4858;BME280;58975;51.978;8.472;2023-02-28T05:37:14;101796.63;;;-4.40;100.00
4858;BME280;58975;51.978;8.472;2023-02-28T05:42:11;101796.63;;;-4.37;100.00
4858;BME280;58975;51.978;8.472;2023-02-28T05:47:08;101794.88;;;-4.35;100.00
4858;BME280;58975;51.978;8.472;2023-02-28T05:52:04;101797.50;;;-4.33;100.00
4858;BME280;58975;51.978;8.472;2023-02-28T05:57:01;101791.44;;;-4.34;100.00
4858;BME280;58975;51.978;8.472;2023-02-28T06:02:00;101789.72;;;-4.25;100.00
4858;BME280;58975;51.978;8.472;2023-02-28T06:06:56;101795.78;;;-4.28;100.00
4858;BME280;58975;51.978;8.472;2023-02-28T06:11:53;101792.31;;;-4.33;100.00
4858;BME280;58975;51.978;8.472;2023-02-28T06:16:50;101800.09;;;-4.38;100.00
4858;BME280;58975;51.978;8.472;2023-02-28T06:21:50;101801.78;;;-4.43;100.00
4858;BME280;58975;51.978;8.472;2023-02-28T06:26:48;101800.09;;;-4.44;100.00
4858;BME280;58975;51.978;8.472;2023-02-28T06:31:45;101800.09;;;-4.38;100.00
4858;BME280;58975;51.978;8.472;2023-02-28T06:36:43;101803.56;;;-4.26;100.00
4858;BME280;58975;51.978;8.472;2023-02-28T06:41:39;101804.47;;;-4.09;100.00
4858;BME280;58975;51.978;8.472;2023-02-28T06:46:49;101804.50;;;-3.74;100.00
4858;BME280;58975;51.978;8.472;2023-02-28T06:51:46;101816.66;;;-3.39;100.00
4858;BME280;58975;51.978;8.472;2023-02-28T06:56:42;101819.25;;;-3.36;100.00
4858;BME280;58975;51.978;8.472;2023-02-28T07:01:39;101822.69;;;-3.15;100.00
4858;BME280;58975;51.978;8.472;2023-02-28T07:06:36;101822.63;;;-2.91;100.00
4858;BME280;58975;51.978;8.472;2023-02-28T07:11:32;101835.56;;;-2.61;100.00
4858;BME280;58975;51.978;8.472;2023-02-28T07:16:28;101845.84;;;-2.29;100.00
4858;BME280;58975;51.978;8.472;2023-02-28T07:21:25;101838.78;;;-2.04;100.00
4858;BME280;58975;51.978;8.472;2023-02-28T07:26:22;101849.09;;;-1.92;100.00
4858;BME280;58975;51.978;8.472;2023-02-28T07:31:19;101851.59;;;-1.75;100.00
4858;BME280;58975;51.978;8.472;2023-02-28T07:36:16;101854.28;;;-1.81;100.00
4858;BME280;58975;51.978;8.472;2023-02-28T07:41:16;101862.88;;;-1.66;100.00
4858;BME280;58975;51.978;8.472;2023-02-28T07:46:15;101854.81;;;-1.40;100.00
4858;BME280;58975;51.978;8.472;2023-02-28T07:51:11;101851.94;;;-1.11;100.00
4858;BME280;58975;51.978;8.472;2023-02-28T07:56:08;101849.94;;;-0.85;100.00
4858;BME280;58975;51.978;8.472;2023-02-28T08:01:09;101854.91;;;-0.62;100.00
4858;BME280;58975;51.978;8.472;2023-02-28T08:06:08;101855.56;;;-0.43;100.00
4858;BME280;58975;51.978;8.472;2023-02-28T08:11:04;101846.44;;;-0.12;100.00
4858;BME280;58975;51.978;8.472;2023-02-28T08:16:01;101855.59;;;0.16;100.00
4858;BME280;58975;51.978;8.472;2023-02-28T08:20:58;101858.84;;;0.32;100.00
4858;BME280;58975;51.978;8.472;2023-02-28T08:25:56;101853.41;;;0.45;100.00
4858;BME280;58975;51.978;8.472;2023-02-28T08:30:52;101852.28;;;0.62;100.00
4858;BME280;58975;51.978;8.472;2023-02-28T08:35:53;101850.16;;;0.83;100.00
4858;BME280;58975;51.978;8.472;2023-02-28T08:40:56;101845.31;;;1.10;100.00
4858;BME280;58975;51.978;8.472;2023-02-28T08:45:55;101855.31;;;1.35;100.00
4858;BME280;58975;51.978;8.472;2023-02-28T08:50:58;101854.75;;;1.61;100.00
4858;BME280;58975;51.978;8.472;2023-02-28T08:56:08;101852.13;;;1.63;100.00
4858;BME280;58975;51.978;8.472;2023-02-28T09:06:11;101854.31;;;2.22;90.08
4858;BME280;58975;51.978;8.472;2023-02-28T09:11:09;101860.72;;;2.09;92.07
4858;BME280;58975;51.978;8.472;2023-02-28T09:16:08;101849.97;;;2.20;86.42
4858;BME280;58975;51.978;8.472;2023-02-28T09:21:08;101846.56;;;2.53;82.85
4858;BME280;58975;51.978;8.472;2023-02-28T09:26:05;101844.53;;;2.64;79.84
4858;BME280;58975;51.978;8.472;2023-02-28T09:31:02;101845.91;;;2.44;75.86
4858;BME280;58975;51.978;8.472;2023-02-28T09:36:02;101839.63;;;2.51;77.10
4858;BME280;58975;51.978;8.472;2023-02-28T09:41:01;101844.53;;;2.63;73.45
4858;BME280;58975;51.978;8.472;2023-02-28T09:46:05;101848.50;;;2.45;71.69
4858;BME280;58975;51.978;8.472;2023-02-28T09:56:26;101859.13;;;2.41;77.44
4858;BME280;58975;51.978;8.472;2023-02-28T10:01:57;101854.28;;;2.59;75.52
4858;BME280;58975;51.978;8.472;2023-02-28T10:06:56;101845.25;;;3.03;79.80
4858;BME280;58975;51.978;8.472;2023-02-28T10:11:56;101845.91;;;3.44;77.42
4858;BME280;58975;51.978;8.472;2023-02-28T10:16:59;101848.66;;;3.70;78.64
4858;BME280;58975;51.978;8.472;2023-02-28T10:22:13;101853.91;;;3.41;74.43
4858;BME280;58975;51.978;8.472;2023-02-28T10:27:29;101854.31;;;2.93;77.57
4858;BME280;58975;51.978;8.472;2023-02-28T10:32:29;101852.34;;;3.01;83.66
4858;BME280;58975;51.978;8.472;2023-02-28T10:37:27;101846.41;;;3.25;84.02
4858;BME280;58975;51.978;8.472;2023-02-28T10:42:29;101836.56;;;3.63;84.31
4858;BME280;58975;51.978;8.472;2023-02-28T10:47:25;101846.00;;;3.70;81.67
4858;BME280;58975;51.978;8.472;2023-02-28T10:52:40;101841.66;;;3.69;80.51
4858;BME280;58975;51.978;8.472;2023-02-28T10:57:37;101832.75;;;4.02;78.73
4858;BME280;58975;51.978;8.472;2023-02-28T11:02:35;101821.50;;;4.23;79.81
4858;BME280;58975;51.978;8.472;2023-02-28T11:07:33;101814.91;;;4.10;77.38
4858;BME280;58975;51.978;8.472;2023-02-28T11:12:47;101820.91;;;4.15;80.36
4858;BME280;58975;51.978;8.472;2023-02-28T11:23:12;101803.47;;;4.38;72.67
4858;BME280;58975;51.978;8.472;2023-02-28T11:33:29;101804.53;;;3.47;69.90
4858;BME280;58975;51.978;8.472;2023-02-28T11:38:26;101802.34;;;3.61;71.39
4858;BME280;58975;51.978;8.472;2023-02-28T11:43:46;101799.09;;;4.10;71.90
4858;BME280;58975;51.978;8.472;2023-02-28T11:49:02;101783.00;;;4.46;69.60
4858;BME280;58975;51.978;8.472;2023-02-28T11:54:06;101785.94;;;4.88;68.97
4858;BME280;58975;51.978;8.472;2023-02-28T12:10:11;101765.81;;;4.85;67.39
4858;BME280;58975;51.978;8.472;2023-02-28T12:20:37;101753.56;;;4.83;64.38
4858;BME280;58975;51.978;8.472;2023-02-28T12:26:00;101752.91;;;4.76;66.12
4858;BME280;58975;51.978;8.472;2023-02-28T12:31:04;101757.72;;;4.90;63.85
4858;BME280;58975;51.978;8.472;2023-02-28T12:36:09;101749.09;;;4.85;65.63
4858;BME280;58975;51.978;8.472;2023-02-28T12:41:12;101745.31;;;4.67;66.65
4858;BME280;58975;51.978;8.472;2023-02-28T12:46:17;101731.53;;;4.84;66.37
4858;BME280;58975;51.978;8.472;2023-02-28T12:51:17;101729.09;;;5.02;66.72
4858;BME280;58975;51.978;8.472;2023-02-28T12:56:31;101729.88;;;4.81;65.83
4858;BME280;58975;51.978;8.472;2023-02-28T13:01:36;101731.75;;;4.78;68.77
4858;BME280;58975;51.978;8.472;2023-02-28T13:06:59;101721.22;;;4.78;67.01
4858;BME280;58975;51.978;8.472;2023-02-28T13:12:00;101709.44;;;4.86;65.49
4858;BME280;58975;51.978;8.472;2023-02-28T13:21:56;101712.91;;;4.63;64.63
4858;BME280;58975;51.978;8.472;2023-02-28T13:47:23;101693.69;;;4.60;66.04
4858;BME280;58975;51.978;8.472;2023-02-28T13:52:22;101696.91;;;4.43;65.81
4858;BME280;58975;51.978;8.472;2023-02-28T14:03:04;101701.25;;;4.19;68.54
4858;BME280;58975;51.978;8.472;2023-02-28T14:13:10;101694.59;;;3.81;69.88
4858;BME280;58975;51.978;8.472;2023-02-28T14:18:24;101683.59;;;4.21;69.96
4858;BME280;58975;51.978;8.472;2023-02-28T14:23:35;101689.16;;;4.39;68.03
4858;BME280;58975;51.978;8.472;2023-02-28T14:39:13;101675.03;;;4.40;67.09
4858;BME280;58975;51.978;8.472;2023-02-28T14:49:24;101661.09;;;4.61;65.47
4858;BME280;58975;51.978;8.472;2023-02-28T14:54:23;101667.84;;;4.45;65.24
4858;BME280;58975;51.978;8.472;2023-02-28T14:59:38;101662.59;;;4.43;67.18
4858;BME280;58975;51.978;8.472;2023-02-28T15:04:35;101663.63;;;4.39;67.94
4858;BME280;58975;51.978;8.472;2023-02-28T15:09:31;101671.63;;;4.38;68.14
4858;BME280;58975;51.978;8.472;2023-02-28T15:14:28;101676.41;;;4.26;66.69
4858;BME280;58975;51.978;8.472;2023-02-28T15:19:32;101671.66;;;4.36;68.67
4858;BME280;58975;51.978;8.472;2023-02-28T15:24:40;101676.47;;;4.50;70.67
4858;BME280;58975;51.978;8.472;2023-02-28T15:29:44;101672.63;;;4.34;70.55
4858;BME280;58975;51.978;8.472;2023-02-28T15:34:43;101677.78;;;4.37;73.58
4858;BME280;58975;51.978;8.472;2023-02-28T15:39:43;101679.69;;;4.33;73.35
4858;BME280;58975;51.978;8.472;2023-02-28T15:44:40;101684.31;;;4.26;72.16
4858;BME280;58975;51.978;8.472;2023-02-28T15:49:46;101692.22;;;4.26;72.85
4858;BME280;58975;51.978;8.472;2023-02-28T15:54:44;101685.53;;;4.16;74.71
4858;BME280;58975;51.978;8.472;2023-02-28T15:59:49;101689.06;;;3.89;76.17
4858;BME280;58975;51.978;8.472;2023-02-28T16:09:57;101687.53;;;3.56;83.04
4858;BME280;58975;51.978;8.472;2023-02-28T16:14:56;101698.16;;;3.53;86.15
4858;BME280;58975;51.978;8.472;2023-02-28T16:19:54;101690.56;;;3.42;85.47
4858;BME280;58975;51.978;8.472;2023-02-28T16:24:50;101694.53;;;3.27;87.12
4858;BME280;58975;51.978;8.472;2023-02-28T16:29:48;101693.78;;;3.24;88.23
4858;BME280;58975;51.978;8.472;2023-02-28T16:34:44;101696.25;;;2.99;90.00
4858;BME280;58975;51.978;8.472;2023-02-28T16:39:42;101698.56;;;2.79;98.09
4858;BME280;58975;51.978;8.472;2023-02-28T16:44:39;101706.19;;;2.57;100.00
4858;BME280;58975;51.978;8.472;2023-02-28T16:49:36;101701.66;;;2.30;100.00
4858;BME280;58975;51.978;8.472;2023-02-28T16:54:32;101709.16;;;2.11;100.00
4858;BME280;58975;51.978;8.472;2023-02-28T16:59:29;101720.88;;;1.97;100.00
4858;BME280;58975;51.978;8.472;2023-02-28T17:04:26;101722.91;;;1.85;100.00
4858;BME280;58975;51.978;8.472;2023-02-28T17:09:23;101722.47;;;1.68;100.00
4858;BME280;58975;51.978;8.472;2023-02-28T17:14:37;101722.84;;;1.52;100.00
4858;BME280;58975;51.978;8.472;2023-02-28T17:19:33;101719.53;;;1.42;100.00
4858;BME280;58975;51.978;8.472;2023-02-28T17:24:32;101720.75;;;1.27;100.00
4858;BME280;58975;51.978;8.472;2023-02-28T17:29:28;101720.03;;;1.19;100.00
4858;BME280;58975;51.978;8.472;2023-02-28T17:34:25;101722.13;;;1.02;100.00
4858;BME280;58975;51.978;8.472;2023-02-28T17:39:21;101728.47;;;0.93;100.00
4858;BME280;58975;51.978;8.472;2023-02-28T17:44:21;101732.06;;;0.88;100.00
4858;BME280;58975;51.978;8.472;2023-02-28T17:49:19;101736.56;;;0.80;100.00
4858;BME280;58975;51.978;8.472;2023-02-28T17:54:15;101732.44;;;0.67;100.00
4858;BME280;58975;51.978;8.472;2023-02-28T17:59:14;101746.63;;;0.58;100.00
4858;BME280;58975;51.978;8.472;2023-02-28T18:04:10;101745.94;;;0.47;100.00
4858;BME280;58975;51.978;8.472;2023-02-28T18:09:08;101753.69;;;0.55;100.00
4858;BME280;58975;51.978;8.472;2023-02-28T18:14:04;101744.28;;;0.41;100.00
4858;BME280;58975;51.978;8.472;2023-02-28T18:19:01;101754.91;;;0.32;100.00
4858;BME280;58975;51.978;8.472;2023-02-28T18:24:00;101758.47;;;0.28;100.00
4858;BME280;58975;51.978;8.472;2023-02-28T18:28:57;101763.09;;;0.16;100.00
4858;BME280;58975;51.978;8.472;2023-02-28T18:33:53;101760.56;;;0.08;100.00
4858;BME280;58975;51.978;8.472;2023-02-28T18:38:50;101753.81;;;-0.05;100.00
4858;BME280;58975;51.978;8.472;2023-02-28T18:43:47;101748.63;;;-0.11;100.00
4858;BME280;58975;51.978;8.472;2023-02-28T18:48:46;101744.44;;;-0.21;100.00
4858;BME280;58975;51.978;8.472;2023-02-28T18:53:43;101744.44;;;-0.23;100.00
4858;BME280;58975;51.978;8.472;2023-02-28T18:58:40;101742.84;;;-0.31;100.00
4858;BME280;58975;51.978;8.472;2023-02-28T19:03:37;101748.16;;;-0.36;100.00
4858;BME280;58975;51.978;8.472;2023-02-28T19:08:33;101753.50;;;-0.43;100.00
4858;BME280;58975;51.978;8.472;2023-02-28T19:13:30;101748.38;;;-0.51;100.00
4858;BME280;58975;51.978;8.472;2023-02-28T19:18:26;101750.13;;;-0.52;100.00
4858;BME280;58975;51.978;8.472;2023-02-28T19:23:23;101750.88;;;-0.43;100.00
4858;BME280;58975;51.978;8.472;2023-02-28T19:28:20;101752.56;;;-0.39;100.00
4858;BME280;58975;51.978;8.472;2023-02-28T19:33:17;101750.84;;;-0.40;100.00
4858;BME280;58975;51.978;8.472;2023-02-28T19:38:14;101756.19;;;-0.50;100.00
4858;BME280;58975;51.978;8.472;2023-02-28T19:43:10;101754.75;;;-0.72;100.00
4858;BME280;58975;51.978;8.472;2023-02-28T19:48:07;101759.25;;;-0.83;100.00
4858;BME280;58975;51.978;8.472;2023-02-28T19:53:05;101771.56;;;-0.91;100.00
4858;BME280;58975;51.978;8.472;2023-02-28T19:58:01;101764.63;;;-0.97;100.00
4858;BME280;58975;51.978;8.472;2023-02-28T20:02:58;101763.63;;;-0.83;100.00
4858;BME280;58975;51.978;8.472;2023-02-28T20:07:54;101768.03;;;-0.87;100.00
4858;BME280;58975;51.978;8.472;2023-02-28T20:12:51;101747.28;;;-1.04;100.00
4858;BME280;58975;51.978;8.472;2023-02-28T20:17:47;101741.19;;;-1.04;100.00
4858;BME280;58975;51.978;8.472;2023-02-28T20:22:44;101741.44;;;-1.25;100.00
4858;BME280;58975;51.978;8.472;2023-02-28T20:27:40;101746.06;;;-1.50;100.00
4858;BME280;58975;51.978;8.472;2023-02-28T20:32:37;101759.34;;;-1.73;100.00
4858;BME280;58975;51.978;8.472;2023-02-28T20:37:34;101767.28;;;-1.85;100.00
4858;BME280;58975;51.978;8.472;2023-02-28T20:42:31;101766.34;;;-1.79;100.00
4858;BME280;58975;51.978;8.472;2023-02-28T20:47:27;101770.75;;;-1.84;100.00
4858;BME280;58975;51.978;8.472;2023-02-28T20:52:24;101777.75;;;-1.91;100.00
4858;BME280;58975;51.978;8.472;2023-02-28T20:57:20;101789.19;;;-2.04;100.00
4858;BME280;58975;51.978;8.472;2023-02-28T21:02:17;101788.34;;;-2.09;100.00
4858;BME280;58975;51.978;8.472;2023-02-28T21:07:14;101791.88;;;-2.21;100.00
4858;BME280;58975;51.978;8.472;2023-02-28T21:12:10;101783.25;;;-2.27;100.00
4858;BME280;58975;51.978;8.472;2023-02-28T21:17:07;101789.34;;;-2.31;100.00
4858;BME280;58975;51.978;8.472;2023-02-28T21:22:05;101790.25;;;-2.37;100.00
4858;BME280;58975;51.978;8.472;2023-02-28T21:27:02;101784.16;;;-2.36;100.00
4858;BME280;58975;51.978;8.472;2023-02-28T21:31:58;101792.88;;;-2.42;100.00
4858;BME280;58975;51.978;8.472;2023-02-28T21:36:55;101796.38;;;-2.49;100.00
4858;BME280;58975;51.978;8.472;2023-02-28T21:41:52;101795.56;;;-2.57;100.00
4858;BME280;58975;51.978;8.472;2023-02-28T21:46:50;101799.06;;;-2.59;100.00
4858;BME280;58975;51.978;8.472;2023-02-28T21:51:50;101786.91;;;-2.63;100.00
4858;BME280;58975;51.978;8.472;2023-02-28T21:56:46;101779.09;;;-2.68;100.00
4858;BME280;58975;51.978;8.472;2023-02-28T22:01:48;101778.25;;;-2.73;100.00
4858;BME280;58975;51.978;8.472;2023-02-28T22:06:48;101780.91;;;-2.88;100.00
4858;BME280;58975;51.978;8.472;2023-02-28T22:11:44;101774.00;;;-3.01;100.00
4858;BME280;58975;51.978;8.472;2023-02-28T22:16:42;101787.91;;;-3.01;100.00
4858;BME280;58975;51.978;8.472;2023-02-28T22:21:50;101787.06;;;-3.07;100.00
4858;BME280;58975;51.978;8.472;2023-02-28T22:26:49;101779.28;;;-3.19;100.00
4858;BME280;58975;51.978;8.472;2023-02-28T22:31:46;101779.31;;;-3.25;100.00
4858;BME280;58975;51.978;8.472;2023-02-28T22:36:43;101780.16;;;-3.28;100.00
4858;BME280;58975;51.978;8.472;2023-02-28T22:41:39;101785.38;;;-3.22;100.00
4858;BME280;58975;51.978;8.472;2023-02-28T22:46:35;101789.69;;;-3.16;100.00
4858;BME280;58975;51.978;8.472;2023-02-28T22:51:33;101794.00;;;-3.12;100.00
4858;BME280;58975;51.978;8.472;2023-02-28T22:56:30;101796.63;;;-3.15;100.00
4858;BME280;58975;51.978;8.472;2023-02-28T23:01:29;101801.84;;;-3.21;100.00
4858;BME280;58975;51.978;8.472;2023-02-28T23:06:34;101796.66;;;-3.27;100.00
4858;BME280;58975;51.978;8.472;2023-02-28T23:11:38;101797.53;;;-3.24;100.00
4858;BME280;58975;51.978;8.472;2023-02-28T23:21:43;101794.91;;;-3.21;100.00
4858;BME280;58975;51.978;8.472;2023-02-28T23:26:43;101792.28;;;-3.15;100.00
4858;BME280;58975;51.978;8.472;2023-02-28T23:31:40;101779.25;;;-3.07;100.00
4858;BME280;58975;51.978;8.472;2023-02-28T23:36:37;101778.38;;;-3.09;100.00
4858;BME280;58975;51.978;8.472;2023-02-28T23:41:34;101778.38;;;-3.06;100.00
4858;BME280;58975;51.978;8.472;2023-02-28T23:46:30;101773.19;;;-3.21;100.00
4858;BME280;58975;51.978;8.472;2023-02-28T23:51:28;101779.31;;;-3.38;100.00
4858;BME280;58975;51.978;8.472;2023-02-28T23:56:24;101781.06;;;-3.46;100.00
